sensor_id;sensor_type;location;lat;lon;timestamp;P1;durP1;ratioP1;P2;durP2;ratioP2
4074;SDS011;2052;53.522;9.806;2023-09-30T00:02:15;16.90;;;5.10;;
4074;SDS011;2052;53.522;9.806;2023-09-30T00:04:42;16.47;;;6.30;;
4074;SDS011;2052;53.522;9.806;2023-09-30T00:07:09;16.70;;;5.43;;
4074;SDS011;2052;53.522;9.806;2023-09-30T00:09:35;19.80;;;5.50;;
4074;SDS011;2052;53.522;9.806;2023-09-30T00:12:02;19.37;;;5.60;;
4074;SDS011;2052;53.522;9.806;2023-09-30T00:14:30;11.63;;;4.67;;
4074;SDS011;2052;53.522;9.806;2023-09-30T00:16:57;26.63;;;5.27;;
4074;SDS011;2052;53.522;9.806;2023-09-30T00:19:25;14.00;;;4.60;;
4074;SDS011;2052;53.522;9.806;2023-09-30T00:21:51;12.43;;;4.73;;
4074;SDS011;2052;53.522;9.806;2023-09-30T00:24:18;14.73;;;5.13;;
4074;SDS011;2052;53.522;9.806;2023-09-30T00:26:44;28.67;;;5.03;;
4074;SDS011;2052;53.522;9.806;2023-09-30T00:29:12;15.60;;;4.30;;
4074;SDS011;2052;53.522;9.806;2023-09-30T00:31:40;13.33;;;4.43;;
4074;SDS011;2052;53.522;9.806;2023-09-30T00:34:07;15.13;;;4.67;;
4074;SDS011;2052;53.522;9.806;2023-09-30T00:36:33;18.03;;;6.67;;
4074;SDS011;2052;53.522;9.806;2023-09-30T00:39:00;15.80;;;5.87;;
4074;SDS011;2052;53.522;9.806;2023-09-30T00:41:26;26.50;;;6.00;;
4074;SDS011;2052;53.522;9.806;2023-09-30T00:43:53;19.33;;;5.57;;
4074;SDS011;2052;53.522;9.806;2023-09-30T00:46:22;15.07;;;5.00;;
4074;SDS011;2052;53.522;9.806;2023-09-30T00:48:54;14.40;;;5.30;;
4074;SDS011;2052;53.522;9.806;2023-09-30T00:51:22;15.67;;;6.37;;
4074;SDS011;2052;53.522;9.806;2023-09-30T00:53:49;21.60;;;5.57;;
4074;SDS011;2052;53.522;9.806;2023-09-30T00:56:15;11.40;;;4.27;;
4074;SDS011;2052;53.522;9.806;2023-09-30T00:58:43;25.10;;;6.70;;
4074;SDS011;2052;53.522;9.806;2023-09-30T01:01:11;18.40;;;4.90;;
4074;SDS011;2052;53.522;9.806;2023-09-30T01:03:37;12.17;;;4.60;;
4074;SDS011;2052;53.522;9.806;2023-09-30T01:06:06;17.07;;;5.10;;
4074;SDS011;2052;53.522;9.806;2023-09-30T01:08:35;20.57;;;5.07;;
4074;SDS011;2052;53.522;9.806;2023-09-30T01:11:01;12.10;;;4.63;;
4074;SDS011;2052;53.522;9.806;2023-09-30T01:13:31;17.27;;;7.27;;
4074;SDS011;2052;53.522;9.806;2023-09-30T01:16:02;24.20;;;5.00;;
4074;SDS011;2052;53.522;9.806;2023-09-30T01:18:29;19.17;;;5.10;;
4074;SDS011;2052;53.522;9.806;2023-09-30T01:20:56;19.77;;;5.80;;
4074;SDS011;2052;53.522;9.806;2023-09-30T01:23:24;22.03;;;4.37;;
4074;SDS011;2052;53.522;9.806;2023-09-30T01:25:52;17.10;;;5.10;;
4074;SDS011;2052;53.522;9.806;2023-09-30T01:28:18;14.17;;;4.80;;
4074;SDS011;2052;53.522;9.806;2023-09-30T01:30:45;21.23;;;6.00;;
4074;SDS011;2052;53.522;9.806;2023-09-30T01:33:11;16.93;;;5.30;;
4074;SDS011;2052;53.522;9.806;2023-09-30T01:35:39;15.57;;;5.07;;
4074;SDS011;2052;53.522;9.806;2023-09-30T01:38:05;14.70;;;5.50;;
4074;SDS011;2052;53.522;9.806;2023-09-30T01:40:33;17.40;;;5.20;;
4074;SDS011;2052;53.522;9.806;2023-09-30T01:43:00;12.80;;;6.50;;
4074;SDS011;2052;53.522;9.806;2023-09-30T01:45:26;17.50;;;5.30;;
4074;SDS011;2052;53.522;9.806;2023-09-30T01:47:53;16.33;;;7.13;;
4074;SDS011;2052;53.522;9.806;2023-09-30T01:50:22;17.33;;;5.20;;
4074;SDS011;2052;53.522;9.806;2023-09-30T01:52:49;19.70;;;5.50;;
4074;SDS011;2052;53.522;9.806;2023-09-30T01:55:15;15.10;;;4.77;;
4074;SDS011;2052;53.522;9.806;2023-09-30T01:57:43;16.23;;;5.03;;
4074;SDS011;2052;53.522;9.806;2023-09-30T02:00:10;18.23;;;5.70;;
4074;SDS011;2052;53.522;9.806;2023-09-30T02:02:37;18.93;;;6.70;;
4074;SDS011;2052;53.522;9.806;2023-09-30T02:05:04;17.43;;;5.60;;
4074;SDS011;2052;53.522;9.806;2023-09-30T02:07:33;24.60;;;5.97;;
4074;SDS011;2052;53.522;9.806;2023-09-30T02:09:59;24.80;;;7.10;;
4074;SDS011;2052;53.522;9.806;2023-09-30T02:12:26;23.30;;;6.43;;
4074;SDS011;2052;53.522;9.806;2023-09-30T02:14:54;20.60;;;5.60;;
4074;SDS011;2052;53.522;9.806;2023-09-30T02:17:21;23.67;;;6.07;;
4074;SDS011;2052;53.522;9.806;2023-09-30T02:19:48;25.90;;;6.37;;
4074;SDS011;2052;53.522;9.806;2023-09-30T02:22:15;20.63;;;5.70;;
4074;SDS011;2052;53.522;9.806;2023-09-30T02:24:41;21.83;;;6.93;;
4074;SDS011;2052;53.522;9.806;2023-09-30T02:27:08;29.40;;;6.73;;
4074;SDS011;2052;53.522;9.806;2023-09-30T02:29:34;14.10;;;5.60;;
4074;SDS011;2052;53.522;9.806;2023-09-30T02:32:02;15.30;;;6.60;;
4074;SDS011;2052;53.522;9.806;2023-09-30T02:34:30;20.00;;;5.57;;
4074;SDS011;2052;53.522;9.806;2023-09-30T02:36:56;25.43;;;6.97;;
4074;SDS011;2052;53.522;9.806;2023-09-30T02:39:26;13.53;;;5.00;;
4074;SDS011;2052;53.522;9.806;2023-09-30T02:41:52;17.73;;;6.03;;
4074;SDS011;2052;53.522;9.806;2023-09-30T02:44:19;13.77;;;5.53;;
4074;SDS011;2052;53.522;9.806;2023-09-30T02:46:45;24.70;;;6.70;;
4074;SDS011;2052;53.522;9.806;2023-09-30T02:49:13;22.40;;;6.67;;
4074;SDS011;2052;53.522;9.806;2023-09-30T02:51:40;15.03;;;5.13;;
4074;SDS011;2052;53.522;9.806;2023-09-30T02:54:06;26.50;;;5.90;;
4074;SDS011;2052;53.522;9.806;2023-09-30T02:56:34;14.63;;;6.07;;
4074;SDS011;2052;53.522;9.806;2023-09-30T02:59:01;20.07;;;6.67;;
4074;SDS011;2052;53.522;9.806;2023-09-30T03:01:28;14.47;;;5.17;;
4074;SDS011;2052;53.522;9.806;2023-09-30T03:03:55;18.63;;;5.60;;
4074;SDS011;2052;53.522;9.806;2023-09-30T03:06:23;17.77;;;6.20;;
4074;SDS011;2052;53.522;9.806;2023-09-30T03:08:49;19.27;;;6.50;;
4074;SDS011;2052;53.522;9.806;2023-09-30T03:11:17;20.47;;;6.23;;
4074;SDS011;2052;53.522;9.806;2023-09-30T03:13:45;22.17;;;8.00;;
4074;SDS011;2052;53.522;9.806;2023-09-30T03:16:11;18.13;;;6.90;;
4074;SDS011;2052;53.522;9.806;2023-09-30T03:18:38;24.80;;;6.90;;
4074;SDS011;2052;53.522;9.806;2023-09-30T03:21:12;23.53;;;7.23;;
4074;SDS011;2052;53.522;9.806;2023-09-30T03:23:41;18.50;;;6.17;;
4074;SDS011;2052;53.522;9.806;2023-09-30T03:26:08;18.83;;;6.07;;
4074;SDS011;2052;53.522;9.806;2023-09-30T03:28:35;18.60;;;5.70;;
4074;SDS011;2052;53.522;9.806;2023-09-30T03:31:01;15.30;;;6.27;;
4074;SDS011;2052;53.522;9.806;2023-09-30T03:33:29;25.23;;;7.27;;
4074;SDS011;2052;53.522;9.806;2023-09-30T03:35:56;23.63;;;7.50;;
4074;SDS011;2052;53.522;9.806;2023-09-30T03:38:24;22.27;;;7.47;;
4074;SDS011;2052;53.522;9.806;2023-09-30T03:40:53;18.17;;;6.87;;
4074;SDS011;2052;53.522;9.806;2023-09-30T03:43:20;16.57;;;6.40;;
4074;SDS011;2052;53.522;9.806;2023-09-30T03:45:48;24.03;;;7.60;;
4074;SDS011;2052;53.522;9.806;2023-09-30T03:48:15;19.83;;;7.40;;
4074;SDS011;2052;53.522;9.806;2023-09-30T03:50:43;18.47;;;7.70;;
4074;SDS011;2052;53.522;9.806;2023-09-30T03:53:10;24.40;;;8.17;;
4074;SDS011;2052;53.522;9.806;2023-09-30T03:55:37;27.73;;;8.33;;
4074;SDS011;2052;53.522;9.806;2023-09-30T03:58:05;24.40;;;9.30;;
4074;SDS011;2052;53.522;9.806;2023-09-30T04:00:31;34.70;;;8.63;;
4074;SDS011;2052;53.522;9.806;2023-09-30T04:02:58;26.30;;;9.50;;
4074;SDS011;2052;53.522;9.806;2023-09-30T04:05:24;31.70;;;8.40;;
4074;SDS011;2052;53.522;9.806;2023-09-30T04:07:54;21.10;;;8.27;;
4074;SDS011;2052;53.522;9.806;2023-09-30T04:10:20;17.13;;;7.33;;
4074;SDS011;2052;53.522;9.806;2023-09-30T04:12:48;27.73;;;8.20;;
4074;SDS011;2052;53.522;9.806;2023-09-30T04:15:16;28.70;;;8.20;;
4074;SDS011;2052;53.522;9.806;2023-09-30T04:17:43;20.40;;;9.23;;
4074;SDS011;2052;53.522;9.806;2023-09-30T04:20:10;18.70;;;8.80;;
4074;SDS011;2052;53.522;9.806;2023-09-30T04:22:41;21.13;;;7.20;;
4074;SDS011;2052;53.522;9.806;2023-09-30T04:25:11;17.77;;;7.90;;
4074;SDS011;2052;53.522;9.806;2023-09-30T04:27:38;21.53;;;8.00;;
4074;SDS011;2052;53.522;9.806;2023-09-30T04:30:05;15.13;;;6.97;;
4074;SDS011;2052;53.522;9.806;2023-09-30T04:32:35;25.50;;;7.93;;
4074;SDS011;2052;53.522;9.806;2023-09-30T04:35:02;25.43;;;8.83;;
4074;SDS011;2052;53.522;9.806;2023-09-30T04:37:29;27.33;;;8.37;;
4074;SDS011;2052;53.522;9.806;2023-09-30T04:39:55;23.67;;;7.93;;
4074;SDS011;2052;53.522;9.806;2023-09-30T04:42:22;17.53;;;7.73;;
4074;SDS011;2052;53.522;9.806;2023-09-30T04:44:50;25.00;;;8.03;;
4074;SDS011;2052;53.522;9.806;2023-09-30T04:47:17;24.07;;;7.37;;
4074;SDS011;2052;53.522;9.806;2023-09-30T04:49:45;22.10;;;9.13;;
4074;SDS011;2052;53.522;9.806;2023-09-30T04:52:12;20.27;;;6.70;;
4074;SDS011;2052;53.522;9.806;2023-09-30T04:54:39;26.87;;;7.10;;
4074;SDS011;2052;53.522;9.806;2023-09-30T04:57:05;16.50;;;7.60;;
4074;SDS011;2052;53.522;9.806;2023-09-30T04:59:32;21.30;;;7.70;;
4074;SDS011;2052;53.522;9.806;2023-09-30T05:01:59;28.37;;;7.00;;
4074;SDS011;2052;53.522;9.806;2023-09-30T05:04:25;19.53;;;7.07;;
4074;SDS011;2052;53.522;9.806;2023-09-30T05:06:53;29.93;;;6.97;;
4074;SDS011;2052;53.522;9.806;2023-09-30T05:09:20;26.80;;;8.00;;
4074;SDS011;2052;53.522;9.806;2023-09-30T05:11:47;27.10;;;8.50;;
4074;SDS011;2052;53.522;9.806;2023-09-30T05:14:13;27.50;;;7.90;;
4074;SDS011;2052;53.522;9.806;2023-09-30T05:16:41;17.13;;;7.70;;
4074;SDS011;2052;53.522;9.806;2023-09-30T05:19:08;28.80;;;8.23;;
4074;SDS011;2052;53.522;9.806;2023-09-30T05:21:35;24.43;;;7.63;;
4074;SDS011;2052;53.522;9.806;2023-09-30T05:24:03;23.20;;;8.90;;
4074;SDS011;2052;53.522;9.806;2023-09-30T05:26:31;23.83;;;7.77;;
4074;SDS011;2052;53.522;9.806;2023-09-30T05:28:58;24.47;;;9.77;;
4074;SDS011;2052;53.522;9.806;2023-09-30T05:31:25;18.50;;;7.67;;
4074;SDS011;2052;53.522;9.806;2023-09-30T05:33:51;18.63;;;7.40;;
4074;SDS011;2052;53.522;9.806;2023-09-30T05:36:19;16.40;;;7.40;;
4074;SDS011;2052;53.522;9.806;2023-09-30T05:38:45;30.97;;;7.97;;
4074;SDS011;2052;53.522;9.806;2023-09-30T05:41:15;21.50;;;8.50;;
4074;SDS011;2052;53.522;9.806;2023-09-30T05:43:41;17.23;;;7.53;;
4074;SDS011;2052;53.522;9.806;2023-09-30T05:46:09;26.07;;;8.37;;
4074;SDS011;2052;53.522;9.806;2023-09-30T05:48:36;26.63;;;8.63;;
4074;SDS011;2052;53.522;9.806;2023-09-30T05:51:04;19.97;;;8.37;;
4074;SDS011;2052;53.522;9.806;2023-09-30T05:53:31;20.67;;;8.30;;
4074;SDS011;2052;53.522;9.806;2023-09-30T05:55:58;26.27;;;7.40;;
4074;SDS011;2052;53.522;9.806;2023-09-30T05:58:26;22.70;;;7.40;;
4074;SDS011;2052;53.522;9.806;2023-09-30T06:00:52;18.40;;;7.33;;
4074;SDS011;2052;53.522;9.806;2023-09-30T06:03:20;22.43;;;7.87;;
4074;SDS011;2052;53.522;9.806;2023-09-30T06:05:47;29.40;;;8.67;;
4074;SDS011;2052;53.522;9.806;2023-09-30T06:08:14;16.73;;;7.03;;
4074;SDS011;2052;53.522;9.806;2023-09-30T06:10:40;22.20;;;8.53;;
4074;SDS011;2052;53.522;9.806;2023-09-30T06:13:09;21.97;;;7.80;;
4074;SDS011;2052;53.522;9.806;2023-09-30T06:15:38;25.67;;;8.10;;
4074;SDS011;2052;53.522;9.806;2023-09-30T06:18:05;23.37;;;7.27;;
4074;SDS011;2052;53.522;9.806;2023-09-30T06:20:32;20.20;;;6.70;;
4074;SDS011;2052;53.522;9.806;2023-09-30T06:22:58;21.40;;;7.70;;
4074;SDS011;2052;53.522;9.806;2023-09-30T06:25:25;20.53;;;8.20;;
4074;SDS011;2052;53.522;9.806;2023-09-30T06:27:52;20.27;;;7.43;;
4074;SDS011;2052;53.522;9.806;2023-09-30T06:30:20;24.27;;;7.67;;
4074;SDS011;2052;53.522;9.806;2023-09-30T06:32:51;24.87;;;8.30;;
4074;SDS011;2052;53.522;9.806;2023-09-30T06:35:18;23.70;;;6.97;;
4074;SDS011;2052;53.522;9.806;2023-09-30T06:37:45;19.50;;;7.30;;
4074;SDS011;2052;53.522;9.806;2023-09-30T06:40:12;14.57;;;6.80;;
4074;SDS011;2052;53.522;9.806;2023-09-30T06:42:39;23.80;;;6.13;;
4074;SDS011;2052;53.522;9.806;2023-09-30T06:45:06;17.93;;;6.00;;
4074;SDS011;2052;53.522;9.806;2023-09-30T06:47:35;17.20;;;5.90;;
4074;SDS011;2052;53.522;9.806;2023-09-30T06:50:03;16.43;;;5.13;;
4074;SDS011;2052;53.522;9.806;2023-09-30T06:52:32;14.37;;;4.37;;
4074;SDS011;2052;53.522;9.806;2023-09-30T06:55:00;10.83;;;4.20;;
4074;SDS011;2052;53.522;9.806;2023-09-30T06:57:26;11.80;;;3.40;;
4074;SDS011;2052;53.522;9.806;2023-09-30T06:59:53;10.83;;;3.80;;
4074;SDS011;2052;53.522;9.806;2023-09-30T07:02:20;11.30;;;4.60;;
4074;SDS011;2052;53.522;9.806;2023-09-30T07:04:47;13.00;;;3.70;;
4074;SDS011;2052;53.522;9.806;2023-09-30T07:07:14;26.77;;;4.40;;
4074;SDS011;2052;53.522;9.806;2023-09-30T07:09:42;13.03;;;4.80;;
4074;SDS011;2052;53.522;9.806;2023-09-30T07:12:09;8.27;;;3.40;;
4074;SDS011;2052;53.522;9.806;2023-09-30T07:14:37;12.57;;;4.63;;
4074;SDS011;2052;53.522;9.806;2023-09-30T07:17:03;8.10;;;3.90;;
4074;SDS011;2052;53.522;9.806;2023-09-30T07:19:31;9.33;;;3.90;;
4074;SDS011;2052;53.522;9.806;2023-09-30T07:21:57;12.60;;;3.63;;
4074;SDS011;2052;53.522;9.806;2023-09-30T07:24:25;10.37;;;3.50;;
4074;SDS011;2052;53.522;9.806;2023-09-30T07:26:52;6.73;;;3.00;;
4074;SDS011;2052;53.522;9.806;2023-09-30T07:29:19;9.13;;;3.63;;
4074;SDS011;2052;53.522;9.806;2023-09-30T07:31:48;14.40;;;4.17;;
4074;SDS011;2052;53.522;9.806;2023-09-30T07:34:15;11.33;;;4.10;;
4074;SDS011;2052;53.522;9.806;2023-09-30T07:36:43;16.10;;;3.90;;
4074;SDS011;2052;53.522;9.806;2023-09-30T07:39:09;8.60;;;3.47;;
4074;SDS011;2052;53.522;9.806;2023-09-30T07:41:37;9.33;;;3.40;;
4074;SDS011;2052;53.522;9.806;2023-09-30T07:44:04;13.90;;;4.47;;
4074;SDS011;2052;53.522;9.806;2023-09-30T07:46:31;8.23;;;3.30;;
4074;SDS011;2052;53.522;9.806;2023-09-30T07:48:57;13.03;;;3.53;;
4074;SDS011;2052;53.522;9.806;2023-09-30T07:51:25;8.60;;;3.40;;
4074;SDS011;2052;53.522;9.806;2023-09-30T07:53:52;10.63;;;3.63;;
4074;SDS011;2052;53.522;9.806;2023-09-30T07:56:18;12.00;;;3.20;;
4074;SDS011;2052;53.522;9.806;2023-09-30T07:58:46;7.60;;;3.10;;
4074;SDS011;2052;53.522;9.806;2023-09-30T08:01:13;10.27;;;3.00;;
4074;SDS011;2052;53.522;9.806;2023-09-30T08:03:40;9.37;;;3.07;;
4074;SDS011;2052;53.522;9.806;2023-09-30T08:06:07;5.80;;;2.80;;
4074;SDS011;2052;53.522;9.806;2023-09-30T08:08:35;8.40;;;3.00;;
4074;SDS011;2052;53.522;9.806;2023-09-30T08:11:02;10.33;;;2.70;;
4074;SDS011;2052;53.522;9.806;2023-09-30T08:13:29;5.80;;;2.53;;
4074;SDS011;2052;53.522;9.806;2023-09-30T08:15:59;9.33;;;3.10;;
4074;SDS011;2052;53.522;9.806;2023-09-30T08:18:25;6.53;;;3.33;;
4074;SDS011;2052;53.522;9.806;2023-09-30T08:20:52;8.20;;;3.63;;
4074;SDS011;2052;53.522;9.806;2023-09-30T08:23:19;9.40;;;3.07;;
4074;SDS011;2052;53.522;9.806;2023-09-30T08:25:46;11.10;;;3.17;;
4074;SDS011;2052;53.522;9.806;2023-09-30T08:28:12;13.30;;;3.10;;
4074;SDS011;2052;53.522;9.806;2023-09-30T08:30:39;8.97;;;3.27;;
4074;SDS011;2052;53.522;9.806;2023-09-30T08:33:07;11.87;;;3.60;;
4074;SDS011;2052;53.522;9.806;2023-09-30T08:35:35;9.57;;;3.47;;
4074;SDS011;2052;53.522;9.806;2023-09-30T08:38:03;12.13;;;3.40;;
4074;SDS011;2052;53.522;9.806;2023-09-30T08:40:30;12.67;;;2.93;;
4074;SDS011;2052;53.522;9.806;2023-09-30T08:42:59;9.93;;;3.17;;
4074;SDS011;2052;53.522;9.806;2023-09-30T08:45:29;14.27;;;6.80;;
4074;SDS011;2052;53.522;9.806;2023-09-30T08:47:58;12.50;;;3.80;;
4074;SDS011;2052;53.522;9.806;2023-09-30T08:50:31;13.13;;;3.40;;
4074;SDS011;2052;53.522;9.806;2023-09-30T08:52:59;9.67;;;3.03;;
4074;SDS011;2052;53.522;9.806;2023-09-30T08:55:26;12.87;;;4.07;;
4074;SDS011;2052;53.522;9.806;2023-09-30T08:57:53;11.00;;;3.37;;
4074;SDS011;2052;53.522;9.806;2023-09-30T09:00:20;13.23;;;3.37;;
4074;SDS011;2052;53.522;9.806;2023-09-30T09:02:47;6.97;;;3.17;;
4074;SDS011;2052;53.522;9.806;2023-09-30T09:05:13;7.40;;;3.03;;
4074;SDS011;2052;53.522;9.806;2023-09-30T09:07:42;9.40;;;3.20;;
4074;SDS011;2052;53.522;9.806;2023-09-30T09:10:10;7.93;;;2.80;;
4074;SDS011;2052;53.522;9.806;2023-09-30T09:12:39;11.33;;;3.90;;
4074;SDS011;2052;53.522;9.806;2023-09-30T09:15:07;11.67;;;4.17;;
4074;SDS011;2052;53.522;9.806;2023-09-30T09:17:41;7.97;;;3.70;;
4074;SDS011;2052;53.522;9.806;2023-09-30T09:20:09;15.47;;;3.27;;
4074;SDS011;2052;53.522;9.806;2023-09-30T09:22:39;13.87;;;3.23;;
4074;SDS011;2052;53.522;9.806;2023-09-30T09:25:08;9.67;;;3.27;;
4074;SDS011;2052;53.522;9.806;2023-09-30T09:27:36;7.47;;;2.47;;
4074;SDS011;2052;53.522;9.806;2023-09-30T09:30:18;8.73;;;3.17;;
4074;SDS011;2052;53.522;9.806;2023-09-30T09:32:55;9.80;;;2.63;;
4074;SDS011;2052;53.522;9.806;2023-09-30T09:35:24;8.33;;;3.03;;
4074;SDS011;2052;53.522;9.806;2023-09-30T09:37:54;9.83;;;3.30;;
4074;SDS011;2052;53.522;9.806;2023-09-30T09:40:25;9.67;;;2.77;;
4074;SDS011;2052;53.522;9.806;2023-09-30T09:42:53;13.13;;;3.23;;
4074;SDS011;2052;53.522;9.806;2023-09-30T09:45:21;11.47;;;3.33;;
4074;SDS011;2052;53.522;9.806;2023-09-30T09:47:49;15.63;;;4.07;;
4074;SDS011;2052;53.522;9.806;2023-09-30T09:50:17;5.37;;;2.40;;
4074;SDS011;2052;53.522;9.806;2023-09-30T09:52:45;9.77;;;2.77;;
4074;SDS011;2052;53.522;9.806;2023-09-30T09:55:15;8.60;;;2.50;;
4074;SDS011;2052;53.522;9.806;2023-09-30T09:57:44;17.97;;;2.90;;
4074;SDS011;2052;53.522;9.806;2023-09-30T10:00:11;11.50;;;3.63;;
4074;SDS011;2052;53.522;9.806;2023-09-30T10:02:39;7.07;;;2.47;;
4074;SDS011;2052;53.522;9.806;2023-09-30T10:05:06;8.37;;;2.50;;
4074;SDS011;2052;53.522;9.806;2023-09-30T10:07:34;6.83;;;2.60;;
4074;SDS011;2052;53.522;9.806;2023-09-30T10:10:05;12.93;;;3.33;;
4074;SDS011;2052;53.522;9.806;2023-09-30T10:12:35;9.53;;;4.23;;
4074;SDS011;2052;53.522;9.806;2023-09-30T10:18:06;5.87;;;2.03;;
4074;SDS011;2052;53.522;9.806;2023-09-30T10:20:35;7.67;;;2.13;;
4074;SDS011;2052;53.522;9.806;2023-09-30T10:23:21;10.77;;;2.70;;
4074;SDS011;2052;53.522;9.806;2023-09-30T10:25:52;9.20;;;3.13;;
4074;SDS011;2052;53.522;9.806;2023-09-30T10:28:35;6.40;;;2.30;;
4074;SDS011;2052;53.522;9.806;2023-09-30T10:36:58;13.87;;;2.73;;
4074;SDS011;2052;53.522;9.806;2023-09-30T10:39:52;12.83;;;3.00;;
4074;SDS011;2052;53.522;9.806;2023-09-30T10:48:34;12.10;;;2.30;;
4074;SDS011;2052;53.522;9.806;2023-09-30T10:51:09;12.40;;;2.10;;
4074;SDS011;2052;53.522;9.806;2023-09-30T10:53:45;6.03;;;2.10;;
4074;SDS011;2052;53.522;9.806;2023-09-30T10:56:13;10.43;;;2.60;;
4074;SDS011;2052;53.522;9.806;2023-09-30T10:58:41;15.50;;;2.73;;
4074;SDS011;2052;53.522;9.806;2023-09-30T11:01:09;5.93;;;2.30;;
4074;SDS011;2052;53.522;9.806;2023-09-30T11:03:35;6.50;;;2.73;;
4074;SDS011;2052;53.522;9.806;2023-09-30T11:06:02;8.30;;;3.00;;
4074;SDS011;2052;53.522;9.806;2023-09-30T11:08:29;8.37;;;2.23;;
4074;SDS011;2052;53.522;9.806;2023-09-30T11:10:58;6.53;;;2.33;;
4074;SDS011;2052;53.522;9.806;2023-09-30T11:13:30;17.17;;;3.00;;
4074;SDS011;2052;53.522;9.806;2023-09-30T11:16:03;7.47;;;2.30;;
4074;SDS011;2052;53.522;9.806;2023-09-30T11:18:30;5.60;;;1.87;;
4074;SDS011;2052;53.522;9.806;2023-09-30T11:21:04;11.13;;;2.23;;
4074;SDS011;2052;53.522;9.806;2023-09-30T11:23:32;9.17;;;2.43;;
4074;SDS011;2052;53.522;9.806;2023-09-30T11:26:01;9.20;;;1.90;;
4074;SDS011;2052;53.522;9.806;2023-09-30T11:28:35;5.20;;;1.80;;
4074;SDS011;2052;53.522;9.806;2023-09-30T11:31:02;7.27;;;1.80;;
4074;SDS011;2052;53.522;9.806;2023-09-30T11:33:31;12.60;;;4.47;;
4074;SDS011;2052;53.522;9.806;2023-09-30T11:36:00;7.93;;;2.60;;
4074;SDS011;2052;53.522;9.806;2023-09-30T11:38:27;11.73;;;2.47;;
4074;SDS011;2052;53.522;9.806;2023-09-30T11:41:02;9.80;;;2.30;;
4074;SDS011;2052;53.522;9.806;2023-09-30T11:43:32;8.30;;;1.73;;
4074;SDS011;2052;53.522;9.806;2023-09-30T11:46:06;5.97;;;1.60;;
4074;SDS011;2052;53.522;9.806;2023-09-30T11:48:34;6.23;;;2.40;;
4074;SDS011;2052;53.522;9.806;2023-09-30T11:51:01;4.77;;;2.10;;
4074;SDS011;2052;53.522;9.806;2023-09-30T11:53:28;5.80;;;1.90;;
4074;SDS011;2052;53.522;9.806;2023-09-30T11:55:56;8.90;;;2.20;;
4074;SDS011;2052;53.522;9.806;2023-09-30T11:58:25;5.33;;;2.23;;
4074;SDS011;2052;53.522;9.806;2023-09-30T12:00:55;5.37;;;1.87;;
4074;SDS011;2052;53.522;9.806;2023-09-30T12:03:23;10.37;;;1.70;;
4074;SDS011;2052;53.522;9.806;2023-09-30T12:05:50;6.87;;;2.07;;
4074;SDS011;2052;53.522;9.806;2023-09-30T12:08:17;7.83;;;1.70;;
4074;SDS011;2052;53.522;9.806;2023-09-30T12:10:44;6.90;;;1.20;;
4074;SDS011;2052;53.522;9.806;2023-09-30T12:13:10;7.73;;;2.00;;
4074;SDS011;2052;53.522;9.806;2023-09-30T12:15:38;7.33;;;2.30;;
4074;SDS011;2052;53.522;9.806;2023-09-30T12:18:05;6.33;;;1.70;;
4074;SDS011;2052;53.522;9.806;2023-09-30T12:20:32;4.23;;;1.60;;
4074;SDS011;2052;53.522;9.806;2023-09-30T12:22:59;6.80;;;1.90;;
4074;SDS011;2052;53.522;9.806;2023-09-30T12:25:25;4.70;;;2.10;;
4074;SDS011;2052;53.522;9.806;2023-09-30T12:27:53;4.93;;;1.97;;
4074;SDS011;2052;53.522;9.806;2023-09-30T12:30:20;8.30;;;2.43;;
4074;SDS011;2052;53.522;9.806;2023-09-30T12:32:48;6.90;;;1.70;;
4074;SDS011;2052;53.522;9.806;2023-09-30T12:35:15;7.67;;;2.27;;
4074;SDS011;2052;53.522;9.806;2023-09-30T12:37:43;6.03;;;1.80;;
4074;SDS011;2052;53.522;9.806;2023-09-30T12:40:10;5.80;;;1.60;;
4074;SDS011;2052;53.522;9.806;2023-09-30T12:42:41;9.30;;;1.77;;
4074;SDS011;2052;53.522;9.806;2023-09-30T12:45:08;2.70;;;1.40;;
4074;SDS011;2052;53.522;9.806;2023-09-30T12:47:35;4.97;;;1.53;;
4074;SDS011;2052;53.522;9.806;2023-09-30T12:50:05;6.93;;;2.00;;
4074;SDS011;2052;53.522;9.806;2023-09-30T12:52:34;5.47;;;1.63;;
4074;SDS011;2052;53.522;9.806;2023-09-30T12:55:00;5.03;;;1.93;;
4074;SDS011;2052;53.522;9.806;2023-09-30T12:57:27;5.83;;;1.80;;
4074;SDS011;2052;53.522;9.806;2023-09-30T12:59:54;6.90;;;1.60;;
4074;SDS011;2052;53.522;9.806;2023-09-30T13:02:20;7.33;;;2.00;;
4074;SDS011;2052;53.522;9.806;2023-09-30T13:04:49;3.87;;;1.60;;
4074;SDS011;2052;53.522;9.806;2023-09-30T13:07:17;5.57;;;2.10;;
4074;SDS011;2052;53.522;9.806;2023-09-30T13:09:44;13.83;;;1.80;;
4074;SDS011;2052;53.522;9.806;2023-09-30T13:12:11;3.53;;;1.67;;
4074;SDS011;2052;53.522;9.806;2023-09-30T13:14:38;6.03;;;1.60;;
4074;SDS011;2052;53.522;9.806;2023-09-30T13:17:05;5.90;;;2.07;;
4074;SDS011;2052;53.522;9.806;2023-09-30T13:19:31;8.23;;;2.10;;
4074;SDS011;2052;53.522;9.806;2023-09-30T13:21:58;8.80;;;1.90;;
4074;SDS011;2052;53.522;9.806;2023-09-30T13:24:27;10.17;;;2.20;;
4074;SDS011;2052;53.522;9.806;2023-09-30T13:26:53;18.10;;;2.70;;
4074;SDS011;2052;53.522;9.806;2023-09-30T13:29:20;6.57;;;2.03;;
4074;SDS011;2052;53.522;9.806;2023-09-30T13:31:46;3.57;;;1.70;;
4074;SDS011;2052;53.522;9.806;2023-09-30T13:34:13;6.20;;;2.20;;
4074;SDS011;2052;53.522;9.806;2023-09-30T13:36:41;5.13;;;2.20;;
4074;SDS011;2052;53.522;9.806;2023-09-30T13:39:08;6.30;;;1.80;;
4074;SDS011;2052;53.522;9.806;2023-09-30T13:41:39;8.57;;;2.17;;
4074;SDS011;2052;53.522;9.806;2023-09-30T13:44:06;3.57;;;2.20;;
4074;SDS011;2052;53.522;9.806;2023-09-30T13:46:33;11.67;;;2.10;;
4074;SDS011;2052;53.522;9.806;2023-09-30T13:48:59;5.07;;;1.77;;
4074;SDS011;2052;53.522;9.806;2023-09-30T13:51:26;3.57;;;2.20;;
4074;SDS011;2052;53.522;9.806;2023-09-30T13:53:53;8.80;;;1.97;;
4074;SDS011;2052;53.522;9.806;2023-09-30T13:56:20;6.77;;;1.87;;
4074;SDS011;2052;53.522;9.806;2023-09-30T13:58:48;3.33;;;1.63;;
4074;SDS011;2052;53.522;9.806;2023-09-30T14:01:15;4.83;;;1.70;;
4074;SDS011;2052;53.522;9.806;2023-09-30T14:03:41;4.53;;;1.60;;
4074;SDS011;2052;53.522;9.806;2023-09-30T14:06:11;8.33;;;1.60;;
4074;SDS011;2052;53.522;9.806;2023-09-30T14:08:38;4.63;;;1.70;;
4074;SDS011;2052;53.522;9.806;2023-09-30T14:11:04;6.80;;;2.40;;
4074;SDS011;2052;53.522;9.806;2023-09-30T14:13:31;6.70;;;1.60;;
4074;SDS011;2052;53.522;9.806;2023-09-30T14:15:59;6.30;;;1.93;;
4074;SDS011;2052;53.522;9.806;2023-09-30T14:18:26;5.83;;;2.23;;
4074;SDS011;2052;53.522;9.806;2023-09-30T14:20:53;5.70;;;1.93;;
4074;SDS011;2052;53.522;9.806;2023-09-30T14:23:19;10.23;;;1.77;;
4074;SDS011;2052;53.522;9.806;2023-09-30T14:25:48;2.47;;;1.40;;
4074;SDS011;2052;53.522;9.806;2023-09-30T14:28:25;5.47;;;1.60;;
4074;SDS011;2052;53.522;9.806;2023-09-30T14:30:52;8.63;;;2.50;;
4074;SDS011;2052;53.522;9.806;2023-09-30T14:33:20;4.27;;;1.73;;
4074;SDS011;2052;53.522;9.806;2023-09-30T14:35:47;7.40;;;2.30;;
4074;SDS011;2052;53.522;9.806;2023-09-30T14:38:13;5.30;;;1.90;;
4074;SDS011;2052;53.522;9.806;2023-09-30T14:40:40;11.10;;;3.13;;
4074;SDS011;2052;53.522;9.806;2023-09-30T14:43:07;11.63;;;2.20;;
4074;SDS011;2052;53.522;9.806;2023-09-30T14:45:36;3.73;;;1.70;;
4074;SDS011;2052;53.522;9.806;2023-09-30T14:48:04;4.60;;;1.77;;
4074;SDS011;2052;53.522;9.806;2023-09-30T14:50:32;6.23;;;2.17;;
4074;SDS011;2052;53.522;9.806;2023-09-30T14:52:59;5.57;;;1.93;;
4074;SDS011;2052;53.522;9.806;2023-09-30T14:55:25;6.40;;;2.50;;
4074;SDS011;2052;53.522;9.806;2023-09-30T14:57:52;6.40;;;2.50;;
4074;SDS011;2052;53.522;9.806;2023-09-30T15:00:19;5.20;;;2.00;;
4074;SDS011;2052;53.522;9.806;2023-09-30T15:02:47;4.67;;;1.57;;
4074;SDS011;2052;53.522;9.806;2023-09-30T15:05:16;9.67;;;2.90;;
4074;SDS011;2052;53.522;9.806;2023-09-30T15:07:44;8.50;;;2.50;;
4074;SDS011;2052;53.522;9.806;2023-09-30T15:10:10;7.63;;;3.20;;
4074;SDS011;2052;53.522;9.806;2023-09-30T15:12:37;3.23;;;1.70;;
4074;SDS011;2052;53.522;9.806;2023-09-30T15:15:04;9.33;;;2.13;;
4074;SDS011;2052;53.522;9.806;2023-09-30T15:17:32;5.83;;;1.80;;
4074;SDS011;2052;53.522;9.806;2023-09-30T15:19:59;9.00;;;2.27;;
4074;SDS011;2052;53.522;9.806;2023-09-30T15:22:26;10.03;;;2.07;;
4074;SDS011;2052;53.522;9.806;2023-09-30T15:24:54;7.50;;;2.03;;
4074;SDS011;2052;53.522;9.806;2023-09-30T15:27:21;6.93;;;2.17;;